Time;durP1;ratioP1;P1;durP2;ratioP2;P2;SDS_P1;SDS_P2;PMS_P1;PMS_P2;Temp;Humidity;BMP_temperature;BMP_pressure;BME280_temperature;BME280_humidity;BME280_pressure;Samples;Min_cycle;Max_cycle;Signal;HPM_P1;HPM_P2
2021/06/01 00:02:15;;;;;;;4.72;2.58;;;15.80;99.90;;;;;;6738721;88;20196;-80
2021/06/01 00:12:16;;;;;;;4.03;2.65;;;15.70;99.90;;;;;;6732413;88;20612;-80
2021/06/01 00:22:17;;;;;;;5.03;2.70;;;15.40;99.90;;;;;;6740043;88;20185;-79
2021/06/01 00:32:17;;;;;;;5.05;2.42;;;15.20;99.90;;;;;;6751393;88;20205;-79
2021/06/01 00:42:18;;;;;;;4.30;2.65;;;15.00;99.90;;;;;;6747080;88;20677;-80
2021/06/01 00:52:18;;;;;;;4.12;2.40;;;15.00;99.90;;;;;;6747232;88;20249;-79
2021/06/01 01:02:19;;;;;;;5.47;2.03;;;14.80;99.90;;;;;;6740912;88;20221;-80
2021/06/01 01:13:08;;;;;;;5.50;2.53;;;14.60;99.90;;;;;;6740523;88;21087;-79
2021/06/01 01:23:15;;;;;;;6.22;2.50;;;14.40;99.90;;;;;;6732088;88;20678;-79
2021/06/01 01:33:30;;;;;;;3.60;1.92;;;14.20;99.90;;;;;;6736517;88;20207;-80
2021/06/01 01:43:34;;;;;;;6.73;2.10;;;13.90;99.90;;;;;;6730613;88;20706;-80
2021/06/01 01:53:34;;;;;;;3.62;2.05;;;13.80;99.90;;;;;;6734714;88;20365;-80
2021/06/01 02:03:38;;;;;;;4.20;2.23;;;13.80;99.90;;;;;;6739165;88;20326;-79
2021/06/01 02:13:50;;;;;;;3.67;2.10;;;13.80;99.90;;;;;;6745410;88;20365;-79
2021/06/01 02:23:57;;;;;;;5.07;2.30;;;13.50;99.90;;;;;;6750476;88;20189;-80
2021/06/01 02:33:58;;;;;;;3.58;2.20;;;13.30;99.90;;;;;;6751041;88;20379;-79
2021/06/01 02:44:01;;;;;;;4.43;2.28;;;13.00;99.90;;;;;;6750754;88;20236;-79
2021/06/01 02:54:04;;;;;;;3.58;2.20;;;12.80;99.90;;;;;;6751050;88;20208;-79
2021/06/01 03:04:07;;;;;;;6.03;2.45;;;12.80;99.90;;;;;;6747213;88;20196;-79
2021/06/01 03:14:08;;;;;;;7.18;2.65;;;12.70;99.90;;;;;;6745317;88;20240;-79
2021/06/01 03:24:09;;;;;;;5.10;2.90;;;12.50;99.90;;;;;;6733978;88;20237;-80
2021/06/01 03:34:09;;;;;;;5.62;2.67;;;12.40;99.90;;;;;;6734948;88;21108;-79
2021/06/01 03:44:10;;;;;;;4.87;2.67;;;12.30;99.90;;;;;;6735798;88;20220;-79
2021/06/01 03:54:10;;;;;;;4.03;2.50;;;12.20;99.90;;;;;;6751346;88;20220;-79
2021/06/01 04:04:11;;;;;;;5.12;2.80;;;12.10;99.90;;;;;;6744950;88;20306;-79
2021/06/01 04:14:11;;;;;;;5.37;2.85;;;11.90;99.90;;;;;;6729974;88;20216;-79
2021/06/01 04:24:12;;;;;;;6.25;3.15;;;11.90;99.90;;;;;;6733741;88;20189;-79
2021/06/01 04:34:13;;;;;;;5.62;3.17;;;11.80;99.90;;;;;;6729368;88;20209;-79
2021/06/01 04:44:13;;;;;;;8.88;3.20;;;12.20;99.90;;;;;;6734084;88;20189;-80
2021/06/01 04:54:55;;;;;;;5.00;3.10;;;12.40;99.90;;;;;;6756808;77;20218;-78
2021/06/01 05:04:55;;;;;;;8.07;3.30;;;12.50;99.90;;;;;;6765832;88;20211;-78
2021/06/01 05:14:56;;;;;;;5.18;2.83;;;12.60;99.90;;;;;;6768613;88;20246;-77
2021/06/01 05:24:57;;;;;;;5.97;3.03;;;12.90;99.90;;;;;;6751258;88;20226;-77
2021/06/01 05:35:02;;;;;;;6.20;2.80;;;13.20;99.90;;;;;;6763579;88;20180;-77
2021/06/01 05:45:04;;;;;;;5.68;2.50;;;13.20;99.90;;;;;;6766805;88;20512;-77
2021/06/01 05:55:06;;;;;;;4.32;2.60;;;13.90;99.90;;;;;;6766277;88;20214;-77
2021/06/01 06:05:07;;;;;;;3.70;2.37;;;14.70;99.90;;;;;;6766574;88;20187;-77
2021/06/01 06:15:13;;;;;;;7.65;2.47;;;15.80;99.90;;;;;;6768465;88;20195;-76
2021/06/01 06:25:14;;;;;;;5.00;2.47;;;17.00;99.90;;;;;;6758636;88;20194;-77
2021/06/01 06:35:15;;;;;;;5.85;2.30;;;17.90;99.90;;;;;;6761918;88;20212;-77
2021/06/01 06:45:16;;;;;;;5.70;2.58;;;18.30;99.90;;;;;;6759764;88;20697;-77
2021/06/01 06:55:17;;;;;;;7.07;2.45;;;18.40;99.90;;;;;;6768852;88;20337;-77
2021/06/01 07:05:20;;;;;;;3.08;2.05;;;18.90;99.50;;;;;;6762147;88;20180;-77
2021/06/01 07:15:23;;;;;;;6.50;2.03;;;19.50;98.10;;;;;;6750792;88;20307;-76
2021/06/01 07:25:24;;;;;;;3.47;1.95;;;20.50;97.30;;;;;;6751605;88;20234;-76
2021/06/01 07:35:25;;;;;;;4.97;2.10;;;21.50;95.40;;;;;;6751357;88;20202;-76
2021/06/01 07:45:26;;;;;;;3.03;2.00;;;21.90;93.50;;;;;;6754250;88;20228;-76
2021/06/01 07:55:27;;;;;;;4.00;2.40;;;21.90;91.90;;;;;;6754276;87;20199;-75
2021/06/01 08:05:28;;;;;;;6.20;2.17;;;23.00;92.10;;;;;;6750806;88;20259;-76
2021/06/01 08:15:28;;;;;;;6.90;2.10;;;24.00;89.60;;;;;;6753853;88;20195;-76
2021/06/01 08:25:29;;;;;;;6.62;2.10;;;25.00;85.30;;;;;;6753706;88;20493;-76
2021/06/01 08:35:30;;;;;;;4.03;1.80;;;25.20;81.00;;;;;;6754258;88;20273;-75
2021/06/01 08:45:33;;;;;;;7.18;2.22;;;25.50;76.80;;;;;;6755137;88;20262;-77
2021/06/01 08:55:34;;;;;;;3.10;1.80;;;26.10;74.80;;;;;;6756157;87;20197;-75
2021/06/01 09:05:34;;;;;;;4.78;1.98;;;24.90;69.40;;;;;;6753268;88;20205;-76
2021/06/01 09:35:42;;;;;;;5.30;1.73;;;24.80;65.60;;;;;;6756076;88;20196;-76
2021/06/01 09:45:43;;;;;;;5.22;2.00;;;25.30;63.10;;;;;;6755495;88;20247;-76
2021/06/01 09:55:49;;;;;;;3.83;1.67;;;25.60;61.60;;;;;;6752927;87;20188;-76
2021/06/01 10:05:54;;;;;;;11.68;2.00;;;25.80;60.00;;;;;;6750281;88;20200;-76
2021/06/01 10:16:01;;;;;;;8.13;1.90;;;25.30;59.90;;;;;;6758054;88;20365;-76
2021/06/01 10:26:03;;;;;;;4.47;1.70;;;25.20;60.80;;;;;;6751999;88;20253;-76
2021/06/01 10:56:53;;;;;;;6.60;1.70;;;26.70;55.90;;;;;;6749458;88;20619;-77
2021/06/01 11:06:55;;;;;;;8.05;2.08;;;27.20;54.10;;;;;;6763068;87;20168;-76
2021/06/01 11:17:00;;;;;;;6.77;1.70;;;27.00;54.40;;;;;;6749757;88;20693;-77
2021/06/01 11:37:32;;;;;;;9.40;1.80;;;26.80;55.10;;;;;;6756524;88;20180;-76
2021/06/01 11:47:54;;;;;;;4.65;2.00;;;27.30;55.00;;;;;;6764766;87;20161;-78
2021/06/01 12:18:53;;;;;;;7.53;1.90;;;27.20;53.30;;;;;;6764087;87;20169;-77
2021/06/01 13:21:03;;;;;;;3.75;1.90;;;29.10;52.20;;;;;;6761076;88;20191;-76
2021/06/01 13:52:20;;;;;;;4.93;1.70;;;27.80;51.30;;;;;;6754700;87;20229;-77
2021/06/01 15:04:30;;;;;;;2.20;1.62;;;28.20;51.90;;;;;;6749219;88;22474;-76
2021/06/01 15:59:03;;;;;;;5.12;1.80;;;28.30;52.60;;;;;;6749090;87;20276;-76
2021/06/01 16:21:23;;;;;;;2.97;1.70;;;28.40;51.70;;;;;;6751668;87;20200;-76
2021/06/01 17:08:37;;;;;;;4.07;1.50;;;27.00;51.70;;;;;;6760120;87;20181;-76
2021/06/01 17:39:06;;;;;;;2.72;1.80;;;27.80;51.00;;;;;;6760412;87;20188;-75
2021/06/01 17:49:08;;;;;;;2.55;1.87;;;27.70;50.90;;;;;;6759623;88;20620;-77
2021/06/01 17:59:09;;;;;;;4.30;1.70;;;27.60;51.00;;;;;;6753390;87;20208;-76
2021/06/01 19:01:31;;;;;;;2.87;1.75;;;24.50;55.10;;;;;;6744980;87;20291;-75
2021/06/01 19:52:30;;;;;;;2.72;1.90;;;23.10;59.40;;;;;;6743330;88;20172;-77
2021/06/01 20:02:32;;;;;;;6.45;2.28;;;22.60;60.50;;;;;;6744887;87;20226;-78
2021/06/01 20:12:33;;;;;;;4.65;2.85;;;22.30;62.40;;;;;;6749108;87;20255;-77
2021/06/01 20:22:37;;;;;;;9.88;3.25;;;22.00;64.70;;;;;;6745819;88;20687;-77
2021/06/01 20:42:58;;;;;;;4.32;3.20;;;21.00;68.20;;;;;;6747151;88;20229;-76
2021/06/01 20:52:58;;;;;;;4.70;3.58;;;20.70;69.60;;;;;;6743243;88;20188;-77
2021/06/01 21:03:04;;;;;;;6.50;3.50;;;20.30;72.70;;;;;;6741934;88;20232;-77
2021/06/01 21:13:05;;;;;;;5.85;3.42;;;19.90;75.00;;;;;;6746479;87;20189;-77
2021/06/01 21:23:05;;;;;;;10.65;3.53;;;19.70;77.10;;;;;;6738842;88;20253;-76
2021/06/01 21:33:16;;;;;;;9.40;4.90;;;19.60;80.90;;;;;;6740934;88;20859;-76
2021/06/01 21:43:16;;;;;;;4.30;2.80;;;19.10;84.60;;;;;;6747299;88;20211;-76
2021/06/01 21:53:20;;;;;;;5.40;3.33;;;19.00;82.70;;;;;;6753915;88;20619;-77
2021/06/01 22:03:23;;;;;;;4.75;3.30;;;18.60;90.00;;;;;;6746813;88;20211;-78
2021/06/01 22:13:27;;;;;;;6.57;3.50;;;18.30;92.00;;;;;;6751622;88;20189;-80
2021/06/01 22:23:31;;;;;;;7.43;3.55;;;18.20;93.40;;;;;;6753590;88;20212;-78
2021/06/01 22:33:34;;;;;;;6.72;3.85;;;17.90;94.30;;;;;;6748871;88;20366;-77
2021/06/01 22:43:37;;;;;;;6.57;4.03;;;17.70;94.10;;;;;;6735605;88;20189;-78
2021/06/01 22:53:38;;;;;;;5.65;4.03;;;17.40;97.50;;;;;;6735193;88;20287;-75
2021/06/01 23:03:45;;;;;;;4.95;3.62;;;17.20;99.90;;;;;;6735569;88;20192;-77
2021/06/01 23:13:56;;;;;;;5.60;3.70;;;17.10;99.90;;;;;;6735532;88;20640;-78
2021/06/01 23:23:57;;;;;;;6.12;3.80;;;16.90;99.90;;;;;;6732679;88;20334;-78
2021/06/01 23:33:58;;;;;;;8.52;4.40;;;16.60;99.90;;;;;;6735470;88;20191;-77
2021/06/01 23:43:59;;;;;;;5.20;3.45;;;16.60;99.90;;;;;;6740116;88;20714;-75
2021/06/01 23:53:59;;;;;;;5.57;3.30;;;16.50;99.90;;;;;;6736549;88;20203;-78
